sensor_id;sensor_type;location;lat;lon;timestamp;pressure;altitude;pressure_sealevel;temperature;humidity
76195;BME280;64964;48.694;21.206;2023-05-07T00:01:38;97939.09;;;14.06;70.59
76195;BME280;64964;48.694;21.206;2023-05-07T00:04:04;97934.16;;;14.03;70.80
76195;BME280;64964;48.694;21.206;2023-05-07T00:06:29;97935.34;;;14.00;70.53
76195;BME280;64964;48.694;21.206;2023-05-07T00:08:56;97924.09;;;13.98;70.82
76195;BME280;64964;48.694;21.206;2023-05-07T00:11:22;97926.13;;;13.96;70.55
76195;BME280;64964;48.694;21.206;2023-05-07T00:13:48;97931.63;;;13.94;70.74
76195;BME280;64964;48.694;21.206;2023-05-07T00:16:13;97932.84;;;13.92;70.63
76195;BME280;64964;48.694;21.206;2023-05-07T00:18:39;97927.72;;;13.90;70.56
76195;BME280;64964;48.694;21.206;2023-05-07T00:21:04;97932.41;;;13.88;70.79
76195;BME280;64964;48.694;21.206;2023-05-07T00:23:30;97924.81;;;13.85;70.54
76195;BME280;64964;48.694;21.206;2023-05-07T00:25:56;97931.53;;;13.81;70.87
76195;BME280;64964;48.694;21.206;2023-05-07T00:28:21;97927.63;;;13.77;70.80
76195;BME280;64964;48.694;21.206;2023-05-07T00:30:46;97939.25;;;13.76;70.83
76195;BME280;64964;48.694;21.206;2023-05-07T00:33:12;97923.50;;;13.75;70.88
76195;BME280;64964;48.694;21.206;2023-05-07T00:35:37;97933.06;;;13.69;71.14
76195;BME280;64964;48.694;21.206;2023-05-07T00:38:03;97935.91;;;13.67;70.97
76195;BME280;64964;48.694;21.206;2023-05-07T00:40:28;97939.75;;;13.65;71.16
76195;BME280;64964;48.694;21.206;2023-05-07T00:42:53;97933.19;;;13.61;71.43
76195;BME280;64964;48.694;21.206;2023-05-07T00:45:25;97941.53;;;13.58;71.30
76195;BME280;64964;48.694;21.206;2023-05-07T00:47:54;97937.59;;;13.54;71.48
76195;BME280;64964;48.694;21.206;2023-05-07T00:50:19;97935.53;;;13.49;71.45
76195;BME280;64964;48.694;21.206;2023-05-07T00:52:45;97935.91;;;13.46;71.73
76195;BME280;64964;48.694;21.206;2023-05-07T00:55:11;97943.44;;;13.42;71.61
76195;BME280;64964;48.694;21.206;2023-05-07T00:57:39;97936.03;;;13.38;71.73
76195;BME280;64964;48.694;21.206;2023-05-07T01:00:06;97940.69;;;13.36;71.73
76195;BME280;64964;48.694;21.206;2023-05-07T01:02:32;97938.25;;;13.34;71.38
76195;BME280;64964;48.694;21.206;2023-05-07T01:05:00;97936.97;;;13.30;71.66
76195;BME280;64964;48.694;21.206;2023-05-07T01:07:25;97933.50;;;13.30;71.64
76195;BME280;64964;48.694;21.206;2023-05-07T01:09:52;97938.16;;;13.28;71.63
76195;BME280;64964;48.694;21.206;2023-05-07T01:12:18;97938.38;;;13.26;71.58
76195;BME280;64964;48.694;21.206;2023-05-07T01:14:43;97937.53;;;13.26;71.47
76195;BME280;64964;48.694;21.206;2023-05-07T01:17:09;97946.50;;;13.25;71.59
76195;BME280;64964;48.694;21.206;2023-05-07T01:19:34;97941.38;;;13.23;71.50
76195;BME280;64964;48.694;21.206;2023-05-07T01:22:09;97937.44;;;13.19;72.43
76195;BME280;64964;48.694;21.206;2023-05-07T01:24:36;97939.47;;;13.17;71.74
76195;BME280;64964;48.694;21.206;2023-05-07T01:27:02;97939.63;;;13.15;71.72
76195;BME280;64964;48.694;21.206;2023-05-07T01:29:28;97939.00;;;13.13;71.75
76195;BME280;64964;48.694;21.206;2023-05-07T01:31:54;97940.00;;;13.12;71.78
76195;BME280;64964;48.694;21.206;2023-05-07T01:34:21;97941.00;;;13.11;71.65
76195;BME280;64964;48.694;21.206;2023-05-07T01:36:47;97934.06;;;13.10;71.68
76195;BME280;64964;48.694;21.206;2023-05-07T01:39:13;97938.56;;;13.10;71.84
76195;BME280;64964;48.694;21.206;2023-05-07T01:41:39;97942.41;;;13.07;72.13
76195;BME280;64964;48.694;21.206;2023-05-07T01:44:05;97938.09;;;13.06;72.25
76195;BME280;64964;48.694;21.206;2023-05-07T01:46:32;97930.16;;;13.06;71.81
76195;BME280;64964;48.694;21.206;2023-05-07T01:48:57;97935.81;;;13.03;72.15
76195;BME280;64964;48.694;21.206;2023-05-07T01:51:23;97934.19;;;13.02;71.84
76195;BME280;64964;48.694;21.206;2023-05-07T01:53:49;97929.88;;;13.01;71.87
76195;BME280;64964;48.694;21.206;2023-05-07T01:56:17;97930.06;;;13.00;71.85
76195;BME280;64964;48.694;21.206;2023-05-07T01:58:47;97930.25;;;12.98;71.91
76195;BME280;64964;48.694;21.206;2023-05-07T02:01:13;97931.28;;;12.97;71.82
76195;BME280;64964;48.694;21.206;2023-05-07T02:03:39;97929.63;;;12.96;71.82
76195;BME280;64964;48.694;21.206;2023-05-07T02:06:04;97931.44;;;12.95;71.77
76195;BME280;64964;48.694;21.206;2023-05-07T02:08:30;97930.44;;;12.96;71.64
76195;BME280;64964;48.694;21.206;2023-05-07T02:10:56;97923.47;;;12.95;71.70
76195;BME280;64964;48.694;21.206;2023-05-07T02:13:21;97916.53;;;12.94;71.63
76195;BME280;64964;48.694;21.206;2023-05-07T02:15:47;97910.19;;;12.95;71.55
76195;BME280;64964;48.694;21.206;2023-05-07T02:18:16;97918.16;;;12.95;71.46
76195;BME280;64964;48.694;21.206;2023-05-07T02:20:42;97925.97;;;12.97;71.53
76195;BME280;64964;48.694;21.206;2023-05-07T02:23:07;97918.16;;;12.95;71.50
76195;BME280;64964;48.694;21.206;2023-05-07T02:25:33;97923.47;;;12.95;71.19
76195;BME280;64964;48.694;21.206;2023-05-07T02:27:58;97928.78;;;12.95;71.46
76195;BME280;64964;48.694;21.206;2023-05-07T02:30:24;97919.19;;;12.94;71.52
76195;BME280;64964;48.694;21.206;2023-05-07T02:32:50;97920.19;;;12.93;71.21
76195;BME280;64964;48.694;21.206;2023-05-07T02:35:16;97929.19;;;12.92;71.55
76195;BME280;64964;48.694;21.206;2023-05-07T02:37:41;97930.63;;;12.95;71.29
76195;BME280;64964;48.694;21.206;2023-05-07T02:40:07;97935.91;;;12.95;71.25
76195;BME280;64964;48.694;21.206;2023-05-07T02:42:32;97933.09;;;12.96;71.29
76195;BME280;64964;48.694;21.206;2023-05-07T02:44:58;97923.09;;;12.99;71.12
76195;BME280;64964;48.694;21.206;2023-05-07T02:47:24;97938.88;;;13.00;71.05
76195;BME280;64964;48.694;21.206;2023-05-07T02:49:51;97932.53;;;13.01;70.59
76195;BME280;64964;48.694;21.206;2023-05-07T02:52:17;97933.56;;;13.00;71.05
76195;BME280;64964;48.694;21.206;2023-05-07T02:54:42;97937.84;;;13.01;70.60
76195;BME280;64964;48.694;21.206;2023-05-07T02:57:07;97936.00;;;13.02;70.46
76195;BME280;64964;48.694;21.206;2023-05-07T02:59:33;97938.66;;;13.02;70.20
76195;BME280;64964;48.694;21.206;2023-05-07T03:01:58;97932.53;;;13.01;70.31
76195;BME280;64964;48.694;21.206;2023-05-07T03:04:23;97937.03;;;13.01;70.01
76195;BME280;64964;48.694;21.206;2023-05-07T03:06:49;97937.84;;;13.01;70.15
76195;BME280;64964;48.694;21.206;2023-05-07T03:09:14;97943.31;;;13.00;70.25
76195;BME280;64964;48.694;21.206;2023-05-07T03:11:39;97940.88;;;12.98;70.13
76195;BME280;64964;48.694;21.206;2023-05-07T03:14:05;97948.19;;;12.96;69.79
76195;BME280;64964;48.694;21.206;2023-05-07T03:16:30;97943.25;;;12.93;70.11
76195;BME280;64964;48.694;21.206;2023-05-07T03:18:56;97952.41;;;12.90;70.06
76195;BME280;64964;48.694;21.206;2023-05-07T03:21:21;97951.13;;;12.86;70.15
76195;BME280;64964;48.694;21.206;2023-05-07T03:23:47;97953.16;;;12.84;70.03
76195;BME280;64964;48.694;21.206;2023-05-07T03:26:12;97949.03;;;12.82;70.13
76195;BME280;64964;48.694;21.206;2023-05-07T03:28:37;97959.84;;;12.80;70.08
76195;BME280;64964;48.694;21.206;2023-05-07T03:31:03;97959.19;;;12.78;70.12
76195;BME280;64964;48.694;21.206;2023-05-07T03:33:28;97957.75;;;12.76;70.67
76195;BME280;64964;48.694;21.206;2023-05-07T03:35:53;97973.19;;;12.72;70.03
76195;BME280;64964;48.694;21.206;2023-05-07T03:38:19;97977.03;;;12.69;70.41
76195;BME280;64964;48.694;21.206;2023-05-07T03:40:44;97976.41;;;12.67;70.49
76195;BME280;64964;48.694;21.206;2023-05-07T03:43:10;97976.22;;;12.69;70.44
76195;BME280;64964;48.694;21.206;2023-05-07T03:45:35;97984.97;;;12.69;70.47
76195;BME280;64964;48.694;21.206;2023-05-07T03:48:01;97979.53;;;12.71;70.79
76195;BME280;64964;48.694;21.206;2023-05-07T03:50:26;97980.13;;;12.73;70.49
76195;BME280;64964;48.694;21.206;2023-05-07T03:52:52;97993.88;;;12.77;70.49
76195;BME280;64964;48.694;21.206;2023-05-07T03:55:17;97983.53;;;12.82;70.76
76195;BME280;64964;48.694;21.206;2023-05-07T03:57:43;97986.06;;;12.90;70.60
76195;BME280;64964;48.694;21.206;2023-05-07T04:00:08;97986.19;;;12.96;70.47
76195;BME280;64964;48.694;21.206;2023-05-07T04:02:34;97991.38;;;13.05;70.14
76195;BME280;64964;48.694;21.206;2023-05-07T04:04:59;97992.47;;;13.10;70.20
76195;BME280;64964;48.694;21.206;2023-05-07T04:07:25;97990.88;;;13.16;70.17
76195;BME280;64964;48.694;21.206;2023-05-07T04:09:50;97991.00;;;13.23;70.16
76195;BME280;64964;48.694;21.206;2023-05-07T04:12:15;97998.03;;;13.30;69.86
76195;BME280;64964;48.694;21.206;2023-05-07T04:14:41;98003.41;;;13.37;69.81
76195;BME280;64964;48.694;21.206;2023-05-07T04:17:06;98008.00;;;13.43;69.64
76195;BME280;64964;48.694;21.206;2023-05-07T04:19:33;98008.25;;;13.48;69.47
76195;BME280;64964;48.694;21.206;2023-05-07T04:21:58;98015.44;;;13.54;69.32
76195;BME280;64964;48.694;21.206;2023-05-07T04:24:24;98001.44;;;13.60;69.69
76195;BME280;64964;48.694;21.206;2023-05-07T04:26:49;98010.69;;;13.64;69.80
76195;BME280;64964;48.694;21.206;2023-05-07T04:29:16;98008.47;;;13.68;69.73
76195;BME280;64964;48.694;21.206;2023-05-07T04:31:42;98006.25;;;13.72;69.60
76195;BME280;64964;48.694;21.206;2023-05-07T04:34:10;98008.16;;;13.78;69.50
76195;BME280;64964;48.694;21.206;2023-05-07T04:36:37;98010.22;;;13.82;69.30
76195;BME280;64964;48.694;21.206;2023-05-07T04:39:03;98008.84;;;13.86;69.72
76195;BME280;64964;48.694;21.206;2023-05-07T04:41:28;98007.44;;;13.90;69.11
76195;BME280;64964;48.694;21.206;2023-05-07T04:43:54;98017.13;;;13.98;69.59
76195;BME280;64964;48.694;21.206;2023-05-07T04:46:19;98018.63;;;14.07;68.93
76195;BME280;64964;48.694;21.206;2023-05-07T04:48:45;98020.16;;;14.16;68.81
76195;BME280;64964;48.694;21.206;2023-05-07T04:51:10;98020.84;;;14.25;68.92
76195;BME280;64964;48.694;21.206;2023-05-07T04:53:37;98018.25;;;14.32;68.46
76195;BME280;64964;48.694;21.206;2023-05-07T04:56:02;98022.59;;;14.39;68.29
76195;BME280;64964;48.694;21.206;2023-05-07T04:58:28;98033.47;;;14.44;68.19
76195;BME280;64964;48.694;21.206;2023-05-07T05:00:57;98038.06;;;14.51;68.08
76195;BME280;64964;48.694;21.206;2023-05-07T05:03:22;98037.66;;;14.54;67.93
76195;BME280;64964;48.694;21.206;2023-05-07T05:05:51;98031.34;;;14.55;68.61
76195;BME280;64964;48.694;21.206;2023-05-07T05:08:17;98042.16;;;14.53;68.14
76195;BME280;64964;48.694;21.206;2023-05-07T05:10:42;98044.44;;;14.56;67.75
76195;BME280;64964;48.694;21.206;2023-05-07T05:13:08;98045.06;;;14.58;68.05
76195;BME280;64964;48.694;21.206;2023-05-07T05:15:34;98046.97;;;14.64;67.52
76195;BME280;64964;48.694;21.206;2023-05-07T05:18:00;98050.88;;;14.68;67.53
76195;BME280;64964;48.694;21.206;2023-05-07T05:20:25;98046.22;;;14.77;67.35
76195;BME280;64964;48.694;21.206;2023-05-07T05:22:51;98044.81;;;14.81;67.06
76195;BME280;64964;48.694;21.206;2023-05-07T05:25:16;98051.00;;;14.88;67.04
76195;BME280;64964;48.694;21.206;2023-05-07T05:27:41;98049.19;;;14.95;66.95
76195;BME280;64964;48.694;21.206;2023-05-07T05:30:07;98054.19;;;15.05;66.73
76195;BME280;64964;48.694;21.206;2023-05-07T05:32:32;98048.09;;;15.18;66.53
76195;BME280;64964;48.694;21.206;2023-05-07T05:34:58;98050.81;;;15.31;66.16
76195;BME280;64964;48.694;21.206;2023-05-07T05:37:23;98057.22;;;15.43;65.85
76195;BME280;64964;48.694;21.206;2023-05-07T05:39:48;98061.78;;;15.63;65.36
76195;BME280;64964;48.694;21.206;2023-05-07T05:42:14;98061.03;;;15.76;65.09
76195;BME280;64964;48.694;21.206;2023-05-07T05:44:39;98067.47;;;15.94;64.95
76195;BME280;64964;48.694;21.206;2023-05-07T05:47:05;98076.31;;;16.02;63.32
76195;BME280;64964;48.694;21.206;2023-05-07T05:49:30;98070.97;;;16.22;64.37
76195;BME280;64964;48.694;21.206;2023-05-07T05:51:55;98070.59;;;16.38;64.16
76195;BME280;64964;48.694;21.206;2023-05-07T05:54:21;98075.94;;;16.51;64.02
76195;BME280;64964;48.694;21.206;2023-05-07T05:56:46;98075.13;;;16.64;63.59
76195;BME280;64964;48.694;21.206;2023-05-07T05:59:12;98065.09;;;16.73;62.75
76195;BME280;64964;48.694;21.206;2023-05-07T06:01:37;98068.97;;;16.77;62.86
76195;BME280;64964;48.694;21.206;2023-05-07T06:04:04;98072.88;;;16.81;62.54
76195;BME280;64964;48.694;21.206;2023-05-07T06:06:29;98066.91;;;16.85;62.22
76195;BME280;64964;48.694;21.206;2023-05-07T06:08:54;98078.00;;;16.89;61.75
76195;BME280;64964;48.694;21.206;2023-05-07T06:11:20;98064.22;;;16.99;61.95
76195;BME280;64964;48.694;21.206;2023-05-07T06:13:45;98066.84;;;17.18;62.06
76195;BME280;64964;48.694;21.206;2023-05-07T06:16:11;98069.25;;;17.33;61.22
76195;BME280;64964;48.694;21.206;2023-05-07T06:18:36;98070.41;;;17.51;60.84
76195;BME280;64964;48.694;21.206;2023-05-07T06:21:02;98068.56;;;17.51;59.88
76195;BME280;64964;48.694;21.206;2023-05-07T06:23:27;98072.25;;;17.57;59.87
76195;BME280;64964;48.694;21.206;2023-05-07T06:25:53;98077.59;;;17.57;59.29
76195;BME280;64964;48.694;21.206;2023-05-07T06:28:18;98077.63;;;17.50;59.05
76195;BME280;64964;48.694;21.206;2023-05-07T06:30:43;98078.25;;;17.46;58.87
76195;BME280;64964;48.694;21.206;2023-05-07T06:33:09;98076.00;;;17.42;59.47
76195;BME280;64964;48.694;21.206;2023-05-07T06:35:34;98071.91;;;17.40;59.21
76195;BME280;64964;48.694;21.206;2023-05-07T06:38:00;98080.97;;;17.32;59.17
76195;BME280;64964;48.694;21.206;2023-05-07T06:40:26;98076.03;;;17.29;59.12
76195;BME280;64964;48.694;21.206;2023-05-07T06:42:52;98073.38;;;17.29;59.61
76195;BME280;64964;48.694;21.206;2023-05-07T06:45:17;98074.81;;;17.32;59.49
76195;BME280;64964;48.694;21.206;2023-05-07T06:47:42;98073.56;;;17.34;59.88
76195;BME280;64964;48.694;21.206;2023-05-07T06:50:08;98080.09;;;17.45;59.52
76195;BME280;64964;48.694;21.206;2023-05-07T06:52:35;98073.72;;;17.53;59.23
76195;BME280;64964;48.694;21.206;2023-05-07T06:55:00;98075.53;;;17.59;58.83
76195;BME280;64964;48.694;21.206;2023-05-07T06:57:26;98084.75;;;17.63;58.84
76195;BME280;64964;48.694;21.206;2023-05-07T06:59:51;98083.94;;;17.69;58.42
76195;BME280;64964;48.694;21.206;2023-05-07T07:02:17;98084.28;;;17.86;58.84
76195;BME280;64964;48.694;21.206;2023-05-07T07:04:42;98078.22;;;17.97;58.58
76195;BME280;64964;48.694;21.206;2023-05-07T07:07:07;98083.31;;;18.12;58.63
76195;BME280;64964;48.694;21.206;2023-05-07T07:09:33;98083.63;;;18.22;57.94
76195;BME280;64964;48.694;21.206;2023-05-07T07:11:58;98081.16;;;18.27;57.61
76195;BME280;64964;48.694;21.206;2023-05-07T07:14:23;98076.50;;;18.41;57.41
76195;BME280;64964;48.694;21.206;2023-05-07T07:16:49;98076.41;;;18.54;56.94
76195;BME280;64964;48.694;21.206;2023-05-07T07:19:15;98087.53;;;18.51;56.44
76195;BME280;64964;48.694;21.206;2023-05-07T07:21:41;98081.72;;;18.61;56.54
76195;BME280;64964;48.694;21.206;2023-05-07T07:24:06;98079.44;;;18.64;55.93
76195;BME280;64964;48.694;21.206;2023-05-07T07:26:32;98076.47;;;18.73;56.09
76195;BME280;64964;48.694;21.206;2023-05-07T07:28:57;98082.00;;;18.78;55.92
76195;BME280;64964;48.694;21.206;2023-05-07T07:31:22;98077.56;;;18.90;56.05
76195;BME280;64964;48.694;21.206;2023-05-07T07:33:48;98074.00;;;18.96;55.65
76195;BME280;64964;48.694;21.206;2023-05-07T07:36:15;98084.44;;;19.04;55.06
76195;BME280;64964;48.694;21.206;2023-05-07T07:38:40;98086.81;;;19.12;55.05
76195;BME280;64964;48.694;21.206;2023-05-07T07:41:08;98084.22;;;19.24;54.55
76195;BME280;64964;48.694;21.206;2023-05-07T07:43:33;98085.72;;;19.38;55.04
76195;BME280;64964;48.694;21.206;2023-05-07T07:45:59;98089.06;;;19.34;53.45
76195;BME280;64964;48.694;21.206;2023-05-07T07:48:24;98091.00;;;19.45;54.17
76195;BME280;64964;48.694;21.206;2023-05-07T07:50:50;98090.34;;;19.50;54.25
76195;BME280;64964;48.694;21.206;2023-05-07T07:53:16;98088.03;;;19.53;54.02
76195;BME280;64964;48.694;21.206;2023-05-07T07:55:42;98083.91;;;19.51;52.76
76195;BME280;64964;48.694;21.206;2023-05-07T07:58:07;98085.72;;;19.57;53.09
76195;BME280;64964;48.694;21.206;2023-05-07T08:00:32;98090.03;;;19.76;53.82
76195;BME280;64964;48.694;21.206;2023-05-07T08:02:58;98087.69;;;19.98;52.43
76195;BME280;64964;48.694;21.206;2023-05-07T08:05:24;98091.63;;;20.26;53.20
76195;BME280;64964;48.694;21.206;2023-05-07T08:07:50;98081.97;;;20.36;52.31
76195;BME280;64964;48.694;21.206;2023-05-07T08:10:18;98086.91;;;20.51;51.97
76195;BME280;64964;48.694;21.206;2023-05-07T08:12:48;98082.66;;;20.74;52.05
76195;BME280;64964;48.694;21.206;2023-05-07T08:15:14;98081.81;;;20.97;51.76
76195;BME280;64964;48.694;21.206;2023-05-07T08:17:40;98089.03;;;21.31;51.71
76195;BME280;64964;48.694;21.206;2023-05-07T08:20:06;98086.47;;;21.48;49.19
76195;BME280;64964;48.694;21.206;2023-05-07T08:22:31;98087.75;;;21.46;49.11
76195;BME280;64964;48.694;21.206;2023-05-07T08:24:57;98084.81;;;21.47;49.51
76195;BME280;64964;48.694;21.206;2023-05-07T08:27:22;98077.72;;;21.41;49.11
76195;BME280;64964;48.694;21.206;2023-05-07T08:29:47;98079.72;;;21.34;49.13
76195;BME280;64964;48.694;21.206;2023-05-07T08:32:14;98076.69;;;21.07;48.16
76195;BME280;64964;48.694;21.206;2023-05-07T08:34:39;98082.06;;;20.95;47.19
76195;BME280;64964;48.694;21.206;2023-05-07T08:37:05;98079.25;;;21.02;48.32
76195;BME280;64964;48.694;21.206;2023-05-07T08:39:30;98089.88;;;21.08;49.03
76195;BME280;64964;48.694;21.206;2023-05-07T08:41:56;98084.97;;;20.94;47.88
76195;BME280;64964;48.694;21.206;2023-05-07T08:44:26;98094.06;;;20.81;48.82
76195;BME280;64964;48.694;21.206;2023-05-07T08:46:53;98088.84;;;20.74;49.08
76195;BME280;64964;48.694;21.206;2023-05-07T08:49:21;98088.59;;;20.76;49.17
76195;BME280;64964;48.694;21.206;2023-05-07T08:51:46;98086.84;;;20.70;49.00
76195;BME280;64964;48.694;21.206;2023-05-07T08:54:15;98088.69;;;20.81;49.06
76195;BME280;64964;48.694;21.206;2023-05-07T08:56:41;98087.31;;;21.02;49.40
76195;BME280;64964;48.694;21.206;2023-05-07T08:59:06;98078.41;;;21.25;49.06
76195;BME280;64964;48.694;21.206;2023-05-07T09:01:32;98086.69;;;21.47;48.89
76195;BME280;64964;48.694;21.206;2023-05-07T09:03:57;98089.94;;;21.60;48.45
76195;BME280;64964;48.694;21.206;2023-05-07T09:06:23;98085.72;;;21.64;47.73
76195;BME280;64964;48.694;21.206;2023-05-07T09:08:55;98088.72;;;21.80;47.79
76195;BME280;64964;48.694;21.206;2023-05-07T09:11:21;98087.38;;;21.94;47.56
76195;BME280;64964;48.694;21.206;2023-05-07T09:13:48;98092.28;;;21.97;47.37
76195;BME280;64964;48.694;21.206;2023-05-07T09:16:14;98083.97;;;21.99;46.79
76195;BME280;64964;48.694;21.206;2023-05-07T09:18:43;98084.59;;;22.18;47.39
76195;BME280;64964;48.694;21.206;2023-05-07T09:21:11;98094.69;;;22.39;46.75
76195;BME280;64964;48.694;21.206;2023-05-07T09:23:36;98089.06;;;22.57;45.63
76195;BME280;64964;48.694;21.206;2023-05-07T09:26:02;98083.44;;;22.76;46.05
76195;BME280;64964;48.694;21.206;2023-05-07T09:28:27;98088.84;;;22.93;44.90
76195;BME280;64964;48.694;21.206;2023-05-07T09:30:52;98090.97;;;23.07;44.49
76195;BME280;64964;48.694;21.206;2023-05-07T09:33:18;98092.22;;;23.22;45.28
76195;BME280;64964;48.694;21.206;2023-05-07T09:35:43;98088.41;;;23.40;44.18
76195;BME280;64964;48.694;21.206;2023-05-07T09:38:09;98090.88;;;23.63;44.57
76195;BME280;64964;48.694;21.206;2023-05-07T09:40:34;98089.50;;;23.82;42.78
76195;BME280;64964;48.694;21.206;2023-05-07T09:43:13;98085.75;;;23.83;40.15
76195;BME280;64964;48.694;21.206;2023-05-07T09:45:39;98078.47;;;23.84;41.96
76195;BME280;64964;48.694;21.206;2023-05-07T09:48:05;98084.94;;;23.83;41.42
76195;BME280;64964;48.694;21.206;2023-05-07T09:50:36;98088.59;;;23.72;39.69
76195;BME280;64964;48.694;21.206;2023-05-07T09:53:03;98096.66;;;23.50;40.70
76195;BME280;64964;48.694;21.206;2023-05-07T09:55:28;98099.69;;;23.36;41.90
76195;BME280;64964;48.694;21.206;2023-05-07T09:57:54;98106.69;;;23.16;42.25
76195;BME280;64964;48.694;21.206;2023-05-07T10:00:21;98099.88;;;22.91;42.50
76195;BME280;64964;48.694;21.206;2023-05-07T10:02:50;98102.84;;;22.61;42.40
76195;BME280;64964;48.694;21.206;2023-05-07T10:05:18;98107.81;;;22.35;42.36
76195;BME280;64964;48.694;21.206;2023-05-07T10:07:44;98090.75;;;22.30;43.38
76195;BME280;64964;48.694;21.206;2023-05-07T10:10:10;98094.34;;;22.35;43.39
76195;BME280;64964;48.694;21.206;2023-05-07T10:12:35;98089.00;;;22.24;43.29
76195;BME280;64964;48.694;21.206;2023-05-07T10:15:08;98098.56;;;22.31;43.17
76195;BME280;64964;48.694;21.206;2023-05-07T10:17:37;98088.41;;;22.33;41.97
76195;BME280;64964;48.694;21.206;2023-05-07T10:20:04;98089.72;;;22.65;43.70
76195;BME280;64964;48.694;21.206;2023-05-07T10:22:39;98094.28;;;22.81;41.86
76195;BME280;64964;48.694;21.206;2023-05-07T10:25:12;98090.53;;;22.99;41.21
76195;BME280;64964;48.694;21.206;2023-05-07T10:27:40;98101.50;;;22.92;42.04
76195;BME280;64964;48.694;21.206;2023-05-07T10:32:57;98110.38;;;22.42;39.19
76195;BME280;64964;48.694;21.206;2023-05-07T10:35:32;98104.47;;;22.28;40.78
76195;BME280;64964;48.694;21.206;2023-05-07T10:38:01;98096.66;;;22.15;42.18
76195;BME280;64964;48.694;21.206;2023-05-07T10:40:27;98093.78;;;22.05;42.30
76195;BME280;64964;48.694;21.206;2023-05-07T10:43:03;98080.13;;;21.95;41.43
76195;BME280;64964;48.694;21.206;2023-05-07T10:45:32;98088.31;;;22.00;42.45
76195;BME280;64964;48.694;21.206;2023-05-07T10:48:11;98099.50;;;22.08;41.51
76195;BME280;64964;48.694;21.206;2023-05-07T10:50:38;98101.84;;;22.05;42.28
76195;BME280;64964;48.694;21.206;2023-05-07T10:55:46;98107.41;;;21.58;41.70
76195;BME280;64964;48.694;21.206;2023-05-07T10:58:32;98115.91;;;21.31;41.67
76195;BME280;64964;48.694;21.206;2023-05-07T11:01:01;98117.56;;;20.85;43.14
76195;BME280;64964;48.694;21.206;2023-05-07T11:03:27;98119.28;;;20.56;44.20
76195;BME280;64964;48.694;21.206;2023-05-07T11:06:12;98114.56;;;20.10;47.62
76195;BME280;64964;48.694;21.206;2023-05-07T11:08:57;98122.53;;;19.86;48.83
76195;BME280;64964;48.694;21.206;2023-05-07T11:11:45;98126.13;;;19.62;48.40
76195;BME280;64964;48.694;21.206;2023-05-07T11:14:11;98133.63;;;19.53;46.40
76195;BME280;64964;48.694;21.206;2023-05-07T11:16:37;98149.00;;;19.21;47.25
76195;BME280;64964;48.694;21.206;2023-05-07T11:19:03;98147.91;;;18.85;47.15
76195;BME280;64964;48.694;21.206;2023-05-07T11:21:35;98162.97;;;18.48;46.27
76195;BME280;64964;48.694;21.206;2023-05-07T11:24:02;98163.06;;;18.28;46.96
76195;BME280;64964;48.694;21.206;2023-05-07T11:26:30;98163.25;;;17.95;47.03
76195;BME280;64964;48.694;21.206;2023-05-07T11:28:56;98170.94;;;17.65;47.22
76195;BME280;64964;48.694;21.206;2023-05-07T11:31:24;98167.09;;;17.48;47.96
76195;BME280;64964;48.694;21.206;2023-05-07T11:33:51;98174.72;;;17.31;48.39
76195;BME280;64964;48.694;21.206;2023-05-07T11:36:17;98182.75;;;17.24;48.55
76195;BME280;64964;48.694;21.206;2023-05-07T11:38:44;98186.88;;;17.07;51.89
76195;BME280;64964;48.694;21.206;2023-05-07T11:41:09;98186.66;;;17.02;53.87
76195;BME280;64964;48.694;21.206;2023-05-07T11:43:35;98189.50;;;16.80;55.63
76195;BME280;64964;48.694;21.206;2023-05-07T11:46:11;98188.03;;;16.58;57.01
76195;BME280;64964;48.694;21.206;2023-05-07T11:48:37;98181.03;;;16.50;54.46
76195;BME280;64964;48.694;21.206;2023-05-07T11:51:05;98172.34;;;16.22;56.69
76195;BME280;64964;48.694;21.206;2023-05-07T11:53:41;98164.06;;;15.97;58.26
76195;BME280;64964;48.694;21.206;2023-05-07T11:56:11;98170.59;;;15.81;55.40
76195;BME280;64964;48.694;21.206;2023-05-07T11:58:36;98183.44;;;15.71;57.01
76195;BME280;64964;48.694;21.206;2023-05-07T12:01:02;98174.91;;;15.47;56.74
76195;BME280;64964;48.694;21.206;2023-05-07T12:03:27;98177.13;;;15.43;55.42
76195;BME280;64964;48.694;21.206;2023-05-07T12:05:53;98183.97;;;15.25;56.48
76195;BME280;64964;48.694;21.206;2023-05-07T12:08:20;98187.44;;;15.25;55.39
76195;BME280;64964;48.694;21.206;2023-05-07T12:10:47;98180.53;;;15.03;56.06
76195;BME280;64964;48.694;21.206;2023-05-07T12:13:20;98193.47;;;15.06;55.15
76195;BME280;64964;48.694;21.206;2023-05-07T12:15:46;98201.34;;;14.92;55.96
76195;BME280;64964;48.694;21.206;2023-05-07T12:18:15;98214.22;;;14.89;55.01
76195;BME280;64964;48.694;21.206;2023-05-07T12:20:40;98219.97;;;14.92;54.66
76195;BME280;64964;48.694;21.206;2023-05-07T12:23:06;98219.34;;;14.90;54.83
76195;BME280;64964;48.694;21.206;2023-05-07T12:25:34;98223.19;;;14.88;55.10
76195;BME280;64964;48.694;21.206;2023-05-07T12:28:04;98213.38;;;14.67;57.21
76195;BME280;64964;48.694;21.206;2023-05-07T12:30:39;98208.50;;;14.70;56.70
76195;BME280;64964;48.694;21.206;2023-05-07T12:33:04;98198.84;;;14.48;57.06
76195;BME280;64964;48.694;21.206;2023-05-07T12:35:31;98217.59;;;14.55;57.43
76195;BME280;64964;48.694;21.206;2023-05-07T12:37:59;98220.25;;;14.55;56.88
76195;BME280;64964;48.694;21.206;2023-05-07T12:40:39;98216.41;;;14.42;58.59
76195;BME280;64964;48.694;21.206;2023-05-07T12:43:05;98206.84;;;14.48;57.82
76195;BME280;64964;48.694;21.206;2023-05-07T12:45:30;98197.34;;;14.39;57.80
76195;BME280;64964;48.694;21.206;2023-05-07T12:48:01;98194.47;;;14.40;57.31
76195;BME280;64964;48.694;21.206;2023-05-07T12:50:31;98200.66;;;14.26;56.81
76195;BME280;64964;48.694;21.206;2023-05-07T12:52:57;98196.75;;;14.22;55.94